Wilton, New York
Current Conditions -  °F | °C
As of 8:46 AM on Friday 24 Oct 2014 (Local Time) from KGFL Reporting Station
Light Rain Light Rain  
Wind Chill: 42°   Ceiling: 400
Heat Index: 44°   Visibility: 1.7mi
Dew Point: 42°   Wind: 5mph
Humidity: 93%   Direction: 80°E
Pressure: 29.86"   Gusts: NA
Location:  43.1979°N, 73.6839°W
Report Text: KGFL 241246Z AUTO 08004KT 1 3/4SM -RA BR OVC004 07/06 A2986 RMK AO2 VIS 1V3 RAE1154B05 P0001 T00670056
Loading
Personal Weather Stations






























Interactive Weather Map
Tropical Storm Tracking
New forecast layout! Learn more

10-Day Weather Forecast

Advertisements
Track Severe Weather on mobile